createdAt,value
2022-08-18T00:01:07.657Z,26.30
2022-08-18T00:03:56.207Z,26.30
2022-08-18T00:06:24.436Z,26.30
2022-08-18T00:08:56.533Z,26.30
2022-08-18T00:11:24.888Z,26.30
2022-08-18T00:13:53.755Z,26.30
2022-08-18T00:16:21.483Z,26.40
2022-08-18T00:18:49.356Z,26.40
2022-08-18T00:21:18.079Z,26.40
2022-08-18T00:23:46.020Z,26.40
2022-08-18T00:26:13.876Z,26.40
2022-08-18T00:28:41.542Z,26.50
2022-08-18T00:31:10.369Z,26.50
2022-08-18T00:33:39.364Z,26.50
2022-08-18T00:36:07.054Z,26.50
2022-08-18T00:38:35.562Z,26.60
2022-08-18T00:41:03.830Z,26.60
2022-08-18T00:43:35.521Z,26.70
2022-08-18T00:46:03.267Z,26.70
2022-08-18T00:48:32.025Z,26.70
2022-08-18T00:51:05.144Z,26.80
2022-08-18T00:53:36.556Z,26.80
2022-08-18T00:56:07.276Z,26.80
2022-08-18T00:58:40.062Z,26.90
2022-08-18T01:01:10.086Z,27.00
2022-08-18T01:03:40.404Z,27.10
2022-08-18T01:06:12.877Z,27.10
2022-08-18T01:08:42.480Z,27.20
2022-08-18T01:11:10.939Z,27.20
2022-08-18T01:13:41.109Z,27.30
2022-08-18T01:16:22.103Z,27.40
2022-08-18T01:19:02.097Z,27.40
2022-08-18T01:21:43.686Z,27.50
2022-08-18T01:24:14.179Z,27.50
2022-08-18T01:26:50.557Z,27.50
2022-08-18T01:29:19.960Z,27.50
2022-08-18T01:31:55.625Z,27.60
2022-08-18T01:34:26.098Z,27.60
2022-08-18T01:36:55.385Z,27.60
2022-08-18T01:41:22.596Z,27.60
2022-08-18T01:42:11.959Z,27.60
2022-08-18T01:44:44.065Z,27.80
2022-08-18T01:47:12.687Z,27.70
2022-08-18T01:49:43.467Z,27.70
2022-08-18T01:52:31.365Z,27.70
2022-08-18T01:54:59.299Z,27.80
2022-08-18T01:57:28.177Z,27.80
2022-08-18T01:59:56.031Z,27.90
2022-08-18T02:02:29.171Z,27.90
2022-08-18T02:05:03.150Z,27.90
2022-08-18T02:07:36.106Z,28.00
2022-08-18T02:10:08.056Z,28.00
2022-08-18T02:12:41.156Z,28.10
2022-08-18T02:15:09.538Z,28.20
2022-08-18T02:17:39.220Z,28.20
2022-08-18T02:20:08.861Z,28.30
2022-08-18T02:22:37.915Z,28.30
2022-08-18T02:25:06.789Z,28.40
2022-08-18T02:27:35.927Z,28.50
2022-08-18T02:30:06.337Z,28.50
2022-08-18T02:32:34.411Z,28.60
2022-08-18T02:35:02.924Z,28.60
2022-08-18T02:37:34.520Z,28.70
2022-08-18T02:40:02.735Z,28.70
2022-08-18T02:42:31.729Z,28.70
2022-08-18T02:45:00.542Z,28.80
2022-08-18T02:47:33.450Z,28.80
2022-08-18T02:50:01.639Z,28.80
2022-08-18T02:52:33.304Z,28.90
2022-08-18T02:55:04.525Z,28.90
2022-08-18T02:57:34.221Z,28.90
2022-08-18T03:00:03.516Z,29.00
2022-08-18T03:02:32.475Z,29.00
2022-08-18T03:05:01.125Z,29.10
2022-08-18T03:07:28.827Z,29.20
2022-08-18T03:09:56.934Z,29.20
2022-08-18T03:12:25.334Z,29.30
2022-08-18T03:14:53.066Z,29.40
2022-08-18T03:17:20.891Z,29.50
2022-08-18T03:19:48.926Z,29.50
2022-08-18T03:22:28.280Z,29.60
2022-08-18T03:25:00.622Z,29.60
2022-08-18T03:27:28.376Z,29.70
2022-08-18T03:29:56.103Z,29.70
2022-08-18T03:32:26.763Z,29.70
2022-08-18T03:34:55.771Z,29.70
2022-08-18T03:37:23.564Z,29.70
2022-08-18T03:39:53.426Z,29.70
2022-08-18T03:42:21.337Z,29.70
2022-08-18T03:44:49.118Z,29.70
2022-08-18T03:47:18.122Z,29.60
2022-08-18T03:49:47.206Z,29.60
2022-08-18T03:52:15.205Z,29.60
2022-08-18T03:54:44.018Z,29.70
2022-08-18T03:57:13.043Z,29.70
2022-08-18T03:59:42.257Z,29.70
2022-08-18T04:02:12.218Z,29.80
2022-08-18T04:04:42.886Z,29.80
2022-08-18T04:07:12.818Z,29.90
2022-08-18T04:09:40.548Z,29.80
2022-08-18T04:12:16.391Z,29.90
2022-08-18T04:14:48.622Z,29.90
2022-08-18T04:17:17.994Z,30.00
2022-08-18T04:19:49.573Z,30.00
2022-08-18T04:22:18.326Z,30.10
2022-08-18T04:24:47.333Z,30.20
2022-08-18T04:27:18.061Z,30.30
2022-08-18T04:29:45.987Z,30.40
2022-08-18T04:32:14.350Z,30.40
2022-08-18T04:34:42.154Z,30.50
2022-08-18T04:37:10.426Z,30.50
2022-08-18T04:39:38.996Z,30.50
2022-08-18T04:42:07.103Z,30.50
2022-08-18T04:44:36.786Z,30.50
2022-08-18T04:47:06.772Z,30.60
2022-08-18T04:49:34.707Z,30.60
2022-08-18T04:52:36.137Z,30.70
2022-08-18T04:55:03.568Z,30.80
2022-08-18T04:57:35.038Z,31.00
2022-08-18T05:00:04.939Z,31.00
2022-08-18T05:02:33.721Z,31.10
2022-08-18T05:05:03.675Z,31.00
2022-08-18T05:07:32.090Z,31.20
2022-08-18T05:09:59.976Z,31.20
2022-08-18T05:12:32.006Z,31.30
2022-08-18T05:15:00.009Z,31.30
2022-08-18T05:17:32.847Z,31.40
2022-08-18T05:20:04.064Z,31.40
2022-08-18T05:22:37.652Z,31.40
2022-08-18T05:25:06.081Z,31.50
2022-08-18T05:27:35.654Z,31.50
2022-08-18T05:30:04.890Z,31.50
2022-08-18T05:32:46.698Z,31.50
2022-08-18T05:35:20.772Z,31.50
2022-08-18T05:37:58.326Z,31.60
2022-08-18T05:40:27.588Z,31.60
2022-08-18T05:42:56.648Z,31.60
2022-08-18T05:45:24.999Z,31.50
2022-08-18T05:47:58.222Z,31.50
2022-08-18T05:50:29.377Z,31.50
2022-08-18T05:53:13.331Z,31.50
2022-08-18T05:58:17.065Z,31.40
2022-08-18T06:00:57.487Z,31.40
2022-08-18T06:03:45.195Z,31.40
2022-08-18T06:06:22.507Z,31.50
2022-08-18T06:08:59.598Z,31.50
2022-08-18T06:11:27.741Z,31.60
2022-08-18T06:13:59.891Z,31.60
2022-08-18T06:16:47.581Z,31.70
2022-08-18T06:19:35.983Z,31.80
2022-08-18T06:22:14.079Z,31.80
2022-08-18T06:24:49.477Z,31.90
2022-08-18T06:27:32.571Z,31.90
2022-08-18T06:30:12.262Z,32.00
2022-08-18T06:32:54.484Z,32.00
2022-08-18T06:35:42.881Z,32.00
2022-08-18T06:38:35.433Z,32.10
2022-08-18T06:41:09.415Z,32.10
2022-08-18T06:44:09.601Z,32.10
2022-08-18T06:46:54.069Z,32.10
2022-08-18T06:49:41.663Z,32.10
2022-08-18T06:52:21.671Z,32.10
2022-08-18T06:54:51.734Z,32.10
2022-08-18T06:57:25.956Z,32.10
2022-08-18T07:00:10.124Z,32.20
2022-08-18T07:02:46.286Z,32.20
2022-08-18T07:05:26.425Z,32.30
2022-08-18T07:08:06.502Z,32.30
2022-08-18T07:10:58.799Z,32.30
2022-08-18T07:13:36.698Z,32.30
2022-08-18T07:16:40.290Z,32.30
2022-08-18T07:19:11.921Z,32.30
2022-08-18T07:21:41.494Z,32.30
2022-08-18T07:24:24.910Z,32.30
2022-08-18T07:27:05.844Z,32.30
2022-08-18T07:29:35.896Z,32.30
2022-08-18T07:32:20.770Z,32.30
2022-08-18T07:34:58.553Z,32.30
2022-08-18T07:37:30.830Z,32.40
2022-08-18T07:40:13.947Z,32.40
2022-08-18T07:42:53.851Z,32.30
2022-08-18T07:45:31.711Z,32.30
2022-08-18T07:48:27.329Z,32.20
2022-08-18T07:51:10.130Z,32.20
2022-08-18T07:53:59.587Z,32.10
2022-08-18T07:56:40.544Z,32.10
2022-08-18T07:59:18.591Z,32.10
2022-08-18T08:02:06.467Z,32.10
2022-08-18T08:04:55.284Z,32.20
2022-08-18T08:07:32.545Z,32.20
2022-08-18T08:10:16.446Z,32.10
2022-08-18T08:13:09.312Z,32.10
2022-08-18T08:15:44.737Z,32.10
2022-08-18T08:18:32.307Z,32.10
2022-08-18T08:21:22.191Z,32.10
2022-08-18T08:23:57.829Z,32.20
2022-08-18T08:26:40.323Z,32.30
2022-08-18T08:29:24.116Z,32.40
2022-08-18T08:32:12.723Z,32.50
2022-08-18T08:34:43.628Z,32.40
2022-08-18T08:37:16.403Z,32.50
2022-08-18T08:39:55.661Z,32.50
2022-08-18T08:42:42.325Z,32.50
2022-08-18T08:45:19.353Z,32.50
2022-08-18T08:48:08.790Z,32.50
2022-08-18T08:50:41.941Z,32.50
2022-08-18T08:53:18.925Z,32.50
2022-08-18T08:55:53.544Z,32.40
2022-08-18T08:58:24.889Z,32.40
2022-08-18T09:00:53.508Z,32.40
2022-08-18T09:03:34.814Z,32.40
2022-08-18T09:06:21.937Z,32.40
2022-08-18T09:09:11.128Z,32.50
2022-08-18T09:11:51.222Z,32.50
2022-08-18T09:14:31.676Z,32.50
2022-08-18T09:17:11.660Z,32.50
2022-08-18T09:20:03.689Z,32.50
2022-08-18T09:22:46.309Z,32.50
2022-08-18T09:25:26.901Z,32.50
2022-08-18T09:28:12.090Z,32.50
2022-08-18T09:31:02.745Z,32.50
2022-08-18T09:33:50.894Z,32.50
2022-08-18T09:36:32.232Z,32.50
2022-08-18T09:39:15.080Z,32.40
2022-08-18T09:41:51.156Z,32.30
2022-08-18T09:44:31.367Z,32.40
2022-08-18T09:47:00.277Z,32.40
2022-08-18T09:49:39.653Z,32.30
2022-08-18T09:52:21.237Z,32.30
2022-08-18T09:55:03.473Z,32.30
2022-08-18T09:57:42.158Z,32.30
2022-08-18T10:00:33.318Z,32.30
2022-08-18T10:03:09.749Z,32.30
2022-08-18T10:05:37.847Z,32.30
2022-08-18T10:08:25.394Z,32.30
2022-08-18T10:10:59.961Z,32.40
2022-08-18T10:13:38.770Z,32.40
2022-08-18T10:16:16.237Z,32.30
2022-08-18T10:19:04.431Z,32.30
2022-08-18T10:21:53.787Z,32.30
2022-08-18T10:24:36.446Z,32.20
2022-08-18T10:27:10.107Z,32.10
2022-08-18T10:29:49.241Z,32.10
2022-08-18T10:32:22.508Z,32.00
2022-08-18T10:34:53.063Z,31.90
2022-08-18T10:40:21.283Z,31.80
2022-08-18T10:43:01.489Z,31.70
2022-08-18T10:45:31.220Z,31.60
2022-08-18T10:48:16.734Z,31.60
2022-08-18T10:50:58.161Z,31.50
2022-08-18T10:53:39.727Z,31.50
2022-08-18T10:56:32.520Z,31.40
2022-08-18T10:59:06.986Z,31.40
2022-08-18T11:02:03.598Z,31.30
2022-08-18T11:04:43.812Z,31.20
2022-08-18T11:07:18.187Z,31.20
2022-08-18T11:10:04.511Z,31.20
2022-08-18T11:12:52.553Z,31.10
2022-08-18T11:15:24.166Z,31.10
2022-08-18T11:18:05.999Z,31.10
2022-08-18T11:20:40.314Z,31.00
2022-08-18T11:23:18.200Z,31.00
2022-08-18T11:25:48.430Z,31.00
2022-08-18T11:28:29.315Z,30.90
2022-08-18T11:31:00.114Z,30.90
2022-08-18T11:33:28.547Z,30.90
2022-08-18T11:36:01.763Z,30.80
2022-08-18T11:38:33.159Z,30.80
2022-08-18T11:41:20.968Z,30.80
2022-08-18T11:43:50.600Z,30.70
2022-08-18T11:46:31.175Z,30.70
2022-08-18T11:49:01.990Z,30.70
2022-08-18T11:51:33.261Z,30.60
2022-08-18T11:54:05.755Z,30.60
2022-08-18T11:56:35.732Z,30.60
2022-08-18T11:59:24.045Z,30.60
2022-08-18T12:02:17.580Z,30.50
2022-08-18T12:04:45.507Z,30.50
2022-08-18T12:07:28.783Z,30.50
2022-08-18T12:10:18.117Z,30.40
2022-08-18T12:12:48.716Z,30.40
2022-08-18T12:15:46.444Z,30.40
2022-08-18T12:21:06.468Z,30.40
2022-08-18T12:23:39.096Z,30.30
2022-08-18T12:26:27.088Z,30.30
2022-08-18T12:29:05.151Z,30.30
2022-08-18T12:31:42.277Z,30.30
2022-08-18T12:37:14.319Z,30.20
2022-08-18T12:39:56.145Z,30.20
2022-08-18T12:42:26.329Z,30.30
2022-08-18T12:44:55.106Z,30.20
2022-08-18T12:47:24.658Z,30.20
2022-08-18T12:49:58.975Z,30.20
2022-08-18T12:52:30.887Z,30.20
2022-08-18T12:55:00.065Z,30.20
2022-08-18T12:57:51.677Z,30.10
2022-08-18T13:00:16.912Z,30.10
2022-08-18T13:02:46.459Z,30.10
2022-08-18T13:05:14.757Z,30.10
2022-08-18T13:07:44.662Z,30.00
2022-08-18T13:10:35.541Z,30.00
2022-08-18T13:13:01.328Z,30.00
2022-08-18T13:15:30.175Z,29.90
2022-08-18T13:17:57.906Z,29.90
2022-08-18T13:20:25.880Z,29.90
2022-08-18T13:22:53.979Z,29.90
2022-08-18T13:25:32.641Z,29.90
2022-08-18T13:28:06.409Z,29.80
2022-08-18T13:30:35.634Z,29.80
2022-08-18T13:33:05.972Z,29.80
2022-08-18T13:35:54.517Z,29.70
2022-08-18T13:38:27.324Z,29.70
2022-08-18T13:40:58.125Z,29.60
2022-08-18T13:43:31.149Z,29.60
2022-08-18T13:46:01.120Z,29.60
2022-08-18T13:48:30.510Z,29.50
2022-08-18T13:50:59.936Z,29.50
2022-08-18T13:53:31.654Z,29.50
2022-08-18T13:55:59.721Z,29.40
2022-08-18T13:58:28.547Z,29.40
2022-08-18T14:01:16.266Z,29.40
2022-08-18T14:03:47.913Z,29.30
2022-08-18T14:06:22.013Z,29.30
2022-08-18T14:08:53.123Z,29.30
2022-08-18T14:11:25.825Z,29.20
2022-08-18T14:13:55.117Z,29.20
2022-08-18T14:16:26.740Z,29.10
2022-08-18T14:19:09.397Z,29.10
2022-08-18T14:21:55.926Z,29.00
2022-08-18T14:24:36.884Z,29.00
2022-08-18T14:27:04.770Z,28.90
2022-08-18T14:29:45.695Z,28.80
2022-08-18T14:32:28.329Z,28.80
2022-08-18T14:35:00.001Z,28.80
2022-08-18T14:37:30.331Z,28.80
2022-08-18T14:40:01.738Z,28.70
2022-08-18T14:42:40.907Z,28.70
2022-08-18T14:45:18.131Z,28.70
2022-08-18T14:48:06.762Z,28.70
2022-08-18T14:50:35.946Z,28.60
2022-08-18T14:53:05.652Z,28.60
2022-08-18T14:55:34.099Z,28.50
2022-08-18T14:58:02.082Z,28.50
2022-08-18T15:00:30.748Z,28.50
2022-08-18T15:02:59.773Z,28.50
2022-08-18T15:05:33.890Z,28.40
2022-08-18T15:08:05.960Z,28.40
2022-08-18T15:10:35.030Z,28.30
2022-08-18T15:13:03.512Z,28.30
2022-08-18T15:15:50.900Z,28.30
2022-08-18T15:18:22.781Z,28.20
2022-08-18T15:21:04.946Z,28.20
2022-08-18T15:23:53.225Z,28.20
2022-08-18T15:26:24.845Z,28.20
2022-08-18T15:28:53.678Z,28.10
2022-08-18T15:34:12.702Z,28.00
2022-08-18T15:36:40.448Z,28.00
2022-08-18T15:39:08.699Z,28.00
2022-08-18T15:41:44.335Z,28.00
2022-08-18T15:44:14.701Z,28.00
2022-08-18T15:46:42.527Z,28.00
2022-08-18T15:49:21.785Z,28.00
2022-08-18T15:51:52.775Z,28.00
2022-08-18T15:54:20.981Z,28.00
2022-08-18T15:56:58.345Z,28.00
2022-08-18T15:59:34.276Z,28.00
2022-08-18T16:02:11.597Z,28.00
2022-08-18T16:04:44.983Z,28.00
2022-08-18T16:07:15.180Z,28.00
2022-08-18T16:09:46.662Z,28.00
2022-08-18T16:12:14.464Z,28.00
2022-08-18T16:14:42.183Z,28.00
2022-08-18T16:17:23.440Z,28.00
2022-08-18T16:19:51.660Z,28.00
2022-08-18T16:22:19.503Z,28.00
2022-08-18T16:24:54.986Z,28.00
2022-08-18T16:27:22.985Z,27.90
2022-08-18T16:29:50.759Z,27.90
2022-08-18T16:32:18.441Z,27.90
2022-08-18T16:34:47.101Z,27.90
2022-08-18T16:39:42.574Z,27.90
2022-08-18T16:42:11.556Z,27.90
2022-08-18T16:44:39.761Z,27.90
2022-08-18T16:47:07.999Z,27.90
2022-08-18T16:49:35.951Z,28.00
2022-08-18T16:52:03.773Z,28.00
2022-08-18T16:54:32.970Z,28.00
2022-08-18T16:57:00.727Z,27.90
2022-08-18T16:59:40.663Z,27.90
2022-08-18T17:02:28.118Z,27.90
2022-08-18T17:04:56.124Z,27.90
2022-08-18T17:07:23.825Z,27.80
2022-08-18T17:09:53.990Z,27.80
2022-08-18T17:12:21.878Z,27.90
2022-08-18T17:14:51.972Z,27.80
2022-08-18T17:17:20.775Z,27.80
2022-08-18T17:19:49.781Z,27.80
2022-08-18T17:22:17.931Z,27.70
2022-08-18T17:24:49.540Z,27.70
2022-08-18T17:27:27.323Z,27.70
2022-08-18T17:30:08.422Z,27.70
2022-08-18T17:32:51.011Z,27.70
2022-08-18T17:35:26.336Z,27.80
2022-08-18T17:38:08.810Z,27.80
2022-08-18T17:40:44.289Z,27.80
2022-08-18T17:43:17.688Z,27.80
2022-08-18T17:45:47.771Z,27.80
2022-08-18T17:48:19.390Z,27.80
2022-08-18T17:51:01.231Z,27.80
2022-08-18T17:53:30.766Z,27.80
2022-08-18T17:56:05.777Z,27.80
2022-08-18T17:58:47.028Z,27.70
2022-08-18T18:01:16.603Z,27.70
2022-08-18T18:03:45.525Z,27.70
2022-08-18T18:06:30.123Z,27.60
2022-08-18T18:08:59.640Z,27.60
2022-08-18T18:11:31.428Z,27.60
2022-08-18T18:14:02.387Z,27.60
2022-08-18T18:16:36.880Z,27.50
2022-08-18T18:19:06.826Z,27.50
2022-08-18T18:22:00.970Z,27.50
2022-08-18T18:24:29.577Z,27.50
2022-08-18T18:26:57.618Z,27.50
2022-08-18T18:29:32.422Z,27.40
2022-08-18T18:32:14.520Z,27.40
2022-08-18T18:34:46.855Z,27.40
2022-08-18T18:37:26.806Z,27.30
2022-08-18T18:39:57.542Z,27.30
2022-08-18T18:42:26.544Z,27.30
2022-08-18T18:44:56.446Z,27.30
2022-08-18T18:47:45.179Z,27.30
2022-08-18T18:50:26.183Z,27.30
2022-08-18T18:53:06.292Z,27.40
2022-08-18T18:55:36.623Z,27.40
2022-08-18T18:58:17.053Z,27.40
2022-08-18T19:00:55.815Z,27.40
2022-08-18T19:03:31.566Z,27.30
2022-08-18T19:06:18.889Z,27.30
2022-08-18T19:09:00.091Z,27.30
2022-08-18T19:11:40.299Z,27.30
2022-08-18T19:14:20.215Z,27.30
2022-08-18T19:16:52.920Z,27.30
2022-08-18T19:19:37.649Z,27.30
2022-08-18T19:22:15.938Z,27.30
2022-08-18T19:24:53.111Z,27.40
2022-08-18T19:27:25.910Z,27.40
2022-08-18T19:29:56.337Z,27.40
2022-08-18T19:32:28.286Z,27.40
2022-08-18T19:34:57.505Z,27.40
2022-08-18T19:37:40.426Z,27.40
2022-08-18T19:40:25.465Z,27.40
2022-08-18T19:43:05.386Z,27.40
2022-08-18T19:45:37.558Z,27.40
2022-08-18T19:48:18.235Z,27.40
2022-08-18T19:50:54.405Z,27.40
2022-08-18T19:53:46.511Z,27.40
2022-08-18T19:56:36.699Z,27.40
2022-08-18T19:59:15.578Z,27.40
2022-08-18T20:01:58.885Z,27.30
2022-08-18T20:04:45.186Z,27.30
2022-08-18T20:07:26.484Z,27.30
2022-08-18T20:10:09.157Z,27.30
2022-08-18T20:12:58.878Z,27.30
2022-08-18T20:15:27.486Z,27.20
2022-08-18T20:18:13.627Z,27.20
2022-08-18T20:20:41.348Z,27.20
2022-08-18T20:23:21.626Z,27.20
2022-08-18T20:25:50.441Z,27.20
2022-08-18T20:28:24.311Z,27.20
2022-08-18T20:31:06.745Z,27.20
2022-08-18T20:33:38.527Z,27.20
2022-08-18T20:36:26.772Z,27.20
2022-08-18T20:38:56.017Z,27.20
2022-08-18T20:41:38.965Z,27.20
2022-08-18T20:44:28.857Z,27.20
2022-08-18T20:47:11.876Z,27.20
2022-08-18T20:49:58.664Z,27.20
2022-08-18T20:52:35.880Z,27.20
2022-08-18T20:55:17.717Z,27.20
2022-08-18T20:57:45.728Z,27.20
2022-08-18T21:00:22.680Z,27.20
2022-08-18T21:02:57.138Z,27.20
2022-08-18T21:05:27.949Z,27.20
2022-08-18T21:08:20.260Z,27.10
2022-08-18T21:10:51.361Z,27.10
2022-08-18T21:13:32.335Z,27.10
2022-08-18T21:16:00.759Z,27.10
2022-08-18T21:18:28.811Z,27.10
2022-08-18T21:20:58.115Z,27.10
2022-08-18T21:23:34.002Z,27.10
2022-08-18T21:26:11.511Z,27.20
2022-08-18T21:28:40.510Z,27.20
2022-08-18T21:31:41.773Z,27.10
2022-08-18T21:34:23.413Z,27.10
2022-08-18T21:36:54.242Z,27.10
2022-08-18T21:39:24.182Z,27.10
2022-08-18T21:41:54.086Z,27.10
2022-08-18T21:44:35.016Z,27.10
2022-08-18T21:47:07.424Z,27.10
2022-08-18T21:49:35.288Z,27.10
2022-08-18T21:52:02.997Z,27.10
2022-08-18T21:54:34.531Z,27.00
2022-08-18T21:57:15.053Z,27.00
2022-08-18T22:00:02.307Z,27.00
2022-08-18T22:02:30.471Z,26.90
2022-08-18T22:04:59.563Z,26.90
2022-08-18T22:07:35.271Z,26.90
2022-08-18T22:10:34.616Z,26.90
2022-08-18T22:13:14.538Z,26.80
2022-08-18T22:15:46.208Z,26.80
2022-08-18T22:18:36.348Z,26.80
2022-08-18T22:21:09.233Z,26.90
2022-08-18T22:23:57.125Z,26.80
2022-08-18T22:26:28.331Z,26.80
2022-08-18T22:29:08.726Z,26.80
2022-08-18T22:31:44.482Z,26.80
2022-08-18T22:34:27.930Z,26.70
2022-08-18T22:37:01.395Z,26.70
2022-08-18T22:39:32.106Z,26.70
2022-08-18T22:42:00.127Z,26.70
2022-08-18T22:44:28.088Z,26.70
2022-08-18T22:46:56.919Z,26.70
2022-08-18T22:49:25.179Z,26.70
2022-08-18T22:51:55.272Z,26.70
2022-08-18T22:54:24.485Z,26.70
2022-08-18T22:56:56.496Z,26.70
2022-08-18T22:59:27.115Z,26.60
2022-08-18T23:01:55.826Z,26.60
2022-08-18T23:04:26.641Z,26.70
2022-08-18T23:06:55.402Z,26.70
2022-08-18T23:09:25.202Z,26.70
2022-08-18T23:11:53.904Z,26.70
2022-08-18T23:14:22.635Z,26.70
2022-08-18T23:16:51.037Z,26.70
2022-08-18T23:19:20.146Z,26.70
2022-08-18T23:21:48.909Z,26.70
2022-08-18T23:24:17.845Z,26.70
2022-08-18T23:26:46.160Z,26.70
2022-08-18T23:29:15.593Z,26.70
2022-08-18T23:31:44.758Z,26.70
2022-08-18T23:34:14.243Z,26.70
2022-08-18T23:36:45.783Z,26.70
2022-08-18T23:39:16.976Z,26.80
2022-08-18T23:41:45.546Z,26.80
2022-08-18T23:44:15.035Z,26.80
2022-08-18T23:46:45.308Z,26.90
2022-08-18T23:49:15.230Z,26.90
2022-08-18T23:51:47.604Z,26.90
2022-08-18T23:54:18.079Z,27.00
2022-08-18T23:56:47.517Z,27.00
2022-08-18T23:59:16.972Z,27.00
